Marine Rouge — JG5115 — position and weather

sailwx.info

Track history (hours):
 
Tides and Currents Weather Stations Pressure Air Temp Water Temp Dewpoint Dewpoint Depression Visibility Wind Speed Wind Dir Waves Ship Positions

Marine Rouge

Last reported at 2018-Jul-15 11:36 UTC. Time now 2018-Jul-16 00:48 UTC.
Position N 35°27' E 139°39'.

Length 52 m; draft 2.8 m.

Type: Passenger vessel. MMSI: 431000518.

Date/timePositionNaut miles runAvg speedWind from/ knotsBaromVisibWave heightAir tempDewpointWater temp
2018-Jul-15 11:36N 35°27' E 139°39'0 3.6
2018-Jul-15 11:31N 35°27' E 139°39'1 1.0
2018-Jul-15 11:00N 35°28' E 139°39'0 0.3
2018-Jul-15 10:31N 35°27' E 139°39'1 1.4
2018-Jul-15 10:00N 35°28' E 139°39'1 2.3
2018-Jul-15 09:31N 35°27' E 139°39'0 0.3
2018-Jul-15 09:00N 35°27' E 139°39'0 0.0
2018-Jul-15 08:30N 35°27' E 139°39'0 0.0
2018-Jul-15 08:00N 35°27' E 139°39'3 5.7
2018-Jul-15 07:30N 35°28' E 139°42'3 5.7
2018-Jul-15 07:00N 35°27' E 139°39'0 0.0
2018-Jul-15 06:30N 35°27' E 139°39'3 5.8
2018-Jul-15 06:00N 35°28' E 139°42'3 5.8
2018-Jul-15 05:30N 35°27' E 139°39'1 1.4
2018-Jul-15 05:00N 35°27' E 139°39'1 1.4
2018-Jul-15 04:30N 35°27' E 139°39'3 5.9
2018-Jul-15 04:00N 35°27' E 139°43'3 6.5
2018-Jul-15 03:30N 35°27' E 139°39'1 1.0
2018-Jul-15 03:00N 35°27' E 139°39'0 0.0
2018-Jul-15 02:30N 35°27' E 139°39'0 0.0
2018-Jul-15 02:00N 35°27' E 139°39'0 0.0
2018-Jul-15 01:30N 35°27' E 139°39'0 0.0
2018-Jul-15 01:00N 35°27' E 139°39'0 0.0
2018-Jul-15 00:29N 35°27' E 139°39'0 0.0
2018-Jul-14 11:34N 35°27' E 139°39'0 1.6
2018-Jul-14 11:30N 35°27' E 139°39'1 1.3
2018-Jul-14 11:00N 35°27' E 139°39'0 0.1
2018-Jul-14 10:30N 35°27' E 139°39'0 0.8
2018-Jul-14 10:00N 35°28' E 139°40'1 1.6
2018-Jul-14 09:31N 35°27' E 139°39'0 0.2
2018-Jul-14 09:00N 35°27' E 139°39'0 0.0
2018-Jul-14 08:30N 35°27' E 139°39'0 0.0
2018-Jul-14 08:01N 35°27' E 139°39'3 5.7
2018-Jul-14 07:31N 35°28' E 139°42'3 5.7
2018-Jul-14 07:01N 35°27' E 139°39'0 0.0
2018-Jul-14 06:30N 35°27' E 139°39'3 5.6
2018-Jul-14 06:00N 35°28' E 139°42'3 5.6
2018-Jul-14 05:30N 35°27' E 139°39'0 0.0
2018-Jul-14 05:00N 35°27' E 139°39'2 4.4
2018-Jul-14 04:30N 35°28' E 139°41'1 2.3
2018-Jul-14 04:00N 35°27' E 139°41'1 2.7
2018-Jul-14 03:30N 35°27' E 139°39'1 1.5
2018-Jul-14 03:00N 35°27' E 139°39'0 0.0
2018-Jul-14 02:30N 35°27' E 139°39'0 0.0
2018-Jul-14 02:01N 35°27' E 139°39'0 0.0
2018-Jul-14 01:30N 35°27' E 139°39'0 0.0
2018-Jul-14 01:00N 35°27' E 139°39'0 0.0
2018-Jul-14 00:30N 35°27' E 139°39'0 0.0
2018-Jul-13 12:39N 35°27' E 139°39'1 5.2
2018-Jul-13 12:30N 35°27' E 139°39'1 1.5
2018-Jul-13 12:00N 35°27' E 139°39'1 2.7
2018-Jul-13 11:30N 35°28' E 139°40'2 4.2
2018-Jul-13 11:00N 35°27' E 139°42'3 5.8
2018-Jul-13 10:30N 35°27' E 139°39'1 1.0
2018-Jul-13 10:00N 35°27' E 139°39'0 0.0
2018-Jul-13 09:30N 35°27' E 139°39'0 0.0
2018-Jul-13 09:00N 35°27' E 139°39'0 0.1
2018-Jul-13 08:30N 35°27' E 139°39'3 5.1
2018-Jul-13 08:00N 35°28' E 139°41'2 4.6
2018-Jul-13 07:30N 35°27' E 139°39'1 1.3
2018-Jul-13 07:01N 35°27' E 139°39'0 0.0
2018-Jul-13 06:31N 35°27' E 139°39'3 5.6
2018-Jul-13 06:00N 35°28' E 139°42'3 5.6
2018-Jul-13 05:30N 35°27' E 139°39'0 0.0
2018-Jul-13 05:00N 35°27' E 139°39'0 0.0
2018-Jul-13 04:30N 35°27' E 139°39'3 5.7
2018-Jul-13 04:00N 35°28' E 139°42'3 6.0
2018-Jul-13 03:30N 35°27' E 139°39'1 1.0
2018-Jul-13 03:00N 35°27' E 139°39'0 0.0
2018-Jul-13 02:30N 35°27' E 139°39'0 0.0
2018-Jul-13 02:00N 35°27' E 139°39'0 0.0
2018-Jul-13 01:30N 35°27' E 139°39'0 0.1
2018-Jul-13 01:00N 35°27' E 139°39'0 0.1
2018-Jul-13 00:30N 35°27' E 139°39'0 0.0
2018-Jul-12 11:56N 35°27' E 139°39'1 3.0
2018-Jul-12 11:30N 35°28' E 139°40'3 5.1
2018-Jul-12 11:00N 35°27' E 139°43'3 6.6
2018-Jul-12 10:31N 35°27' E 139°39'1 1.1
2018-Jul-12 10:00N 35°27' E 139°39'0 0.0
2018-Jul-12 09:30N 35°27' E 139°39'0 0.0
2018-Jul-12 08:59N 35°27' E 139°39'1 2.6
2018-Jul-12 08:30N 35°28' E 139°40'1 2.3
2018-Jul-12 08:00N 35°27' E 139°41'2 3.4
2018-Jul-12 07:30N 35°27' E 139°39'1 1.0
2018-Jul-12 07:00N 35°27' E 139°39'0 0.0
2018-Jul-12 06:30N 35°27' E 139°39'1 2.1
2018-Jul-12 06:00N 35°28' E 139°40'1 2.1
2018-Jul-12 05:30N 35°27' E 139°39'0 0.0
2018-Jul-12 05:00N 35°27' E 139°39'0 0.0
2018-Jul-12 04:30N 35°27' E 139°39'3 5.5
2018-Jul-12 04:00N 35°28' E 139°42'3 5.7
2018-Jul-12 03:30N 35°27' E 139°39'1 1.0
2018-Jul-12 03:00N 35°27' E 139°39'0 0.0
2018-Jul-12 02:30N 35°27' E 139°39'0 0.0
2018-Jul-12 02:00N 35°27' E 139°39'0 0.0
2018-Jul-12 01:30N 35°27' E 139°39'0 0.0
2018-Jul-12 01:00N 35°27' E 139°39'0 0.0
2018-Jul-12 00:30N 35°27' E 139°39'0 0.0
2018-Jul-11 11:57N 35°27' E 139°39'2 3.7
2018-Jul-11 11:31N 35°28' E 139°40'2 4.4
2018-Jul-11 11:01N 35°27' E 139°42'3 6.2
2018-Jul-11 10:31N 35°27' E 139°39'1 1.0
2018-Jul-11 10:01N 35°27' E 139°39'0 0.0
2018-Jul-11 09:31N 35°27' E 139°39'1 1.2
2018-Jul-11 09:01N 35°27' E 139°39'1 2.4
2018-Jul-11 08:31N 35°27' E 139°41'2 3.7
2018-Jul-11 08:00N 35°28' E 139°39'1 1.2
2018-Jul-11 07:30N 35°27' E 139°39'1 1.0
2018-Jul-11 07:00N 35°27' E 139°39'0 0.0
2018-Jul-11 06:31N 35°27' E 139°39'3 5.5
2018-Jul-11 06:00N 35°28' E 139°42'3 5.6
2018-Jul-11 05:31N 35°27' E 139°39'0 0.0
2018-Jul-11 05:00N 35°27' E 139°39'0 0.0
2018-Jul-11 04:31N 35°27' E 139°39'2 4.8
2018-Jul-11 04:01N 35°27' E 139°42'3 5.5
2018-Jul-11 03:31N 35°27' E 139°39'1 1.0
2018-Jul-11 03:01N 35°27' E 139°39'0 0.0
2018-Jul-11 02:30N 35°27' E 139°39'0 0.0
2018-Jul-11 02:00N 35°27' E 139°39'0 0.0
2018-Jul-11 01:31N 35°27' E 139°39'0 0.0
2018-Jul-11 01:00N 35°27' E 139°39'0 0.1
2018-Jul-11 00:31N 35°27' E 139°39'0 0.0
2018-Jul-10 11:58N 35°27' E 139°39'1 2.0
2018-Jul-10 11:30N 35°28' E 139°39'3 5.6
2018-Jul-10 11:00N 35°28' E 139°43'3 5.9
2018-Jul-10 10:31N 35°27' E 139°39'1 1.4
2018-Jul-10 10:00N 35°27' E 139°39'0 0.0
2018-Jul-10 09:30N 35°27' E 139°39'0 0.0
2018-Jul-10 09:00N 35°27' E 139°39'0 0.0
2018-Jul-10 08:30N 35°27' E 139°39'3 5.5
2018-Jul-10 08:00N 35°28' E 139°42'3 5.8
2018-Jul-10 07:30N 35°27' E 139°39'1 1.0
2018-Jul-10 07:00N 35°27' E 139°39'0 0.0
2018-Jul-10 06:31N 35°27' E 139°39'3 5.7
2018-Jul-10 06:00N 35°28' E 139°42'3 5.7
2018-Jul-10 05:30N 35°27' E 139°39'0 0.0
2018-Jul-10 05:00N 35°27' E 139°39'0 0.0
2018-Jul-10 04:30N 35°27' E 139°39'3 5.7
2018-Jul-10 04:00N 35°28' E 139°42'3 6.0
2018-Jul-10 03:30N 35°27' E 139°39'1 1.0
2018-Jul-10 03:00N 35°27' E 139°39'0 0.0
2018-Jul-10 02:30N 35°27' E 139°39'0 0.0
2018-Jul-10 02:00N 35°27' E 139°39'0 0.0
2018-Jul-10 01:30N 35°27' E 139°39'0 0.0
2018-Jul-10 01:00N 35°27' E 139°39'0 0.0
2018-Jul-09 11:57N 35°27' E 139°39'1 2.3
2018-Jul-09 11:31N 35°28' E 139°39'3 6.2
2018-Jul-09 11:01N 35°27' E 139°43'3 6.4
2018-Jul-09 10:31N 35°27' E 139°39'1 1.0
2018-Jul-09 10:01N 35°27' E 139°39'0 0.0
2018-Jul-09 09:31N 35°27' E 139°39'0 0.0
2018-Jul-09 08:59N 35°27' E 139°39'0 0.6
2018-Jul-09 08:31N 35°27' E 139°39'3 5.6
2018-Jul-09 08:01N 35°27' E 139°43'3 6.5
2018-Jul-09 07:31N 35°27' E 139°39'1 1.0
2018-Jul-09 07:01N 35°27' E 139°39'0 0.0
2018-Jul-09 06:30N 35°27' E 139°39'3 5.6
2018-Jul-09 06:01N 35°28' E 139°42'3 5.6
2018-Jul-09 05:31N 35°27' E 139°39'0 0.0
2018-Jul-09 05:00N 35°27' E 139°39'0 0.0
2018-Jul-09 04:31N 35°27' E 139°39'3 5.6
2018-Jul-09 04:01N 35°28' E 139°42'3 5.9
2018-Jul-09 03:30N 35°27' E 139°39'1 1.0
2018-Jul-09 03:01N 35°27' E 139°39'0 0.0
2018-Jul-09 02:30N 35°27' E 139°39'0 0.0
2018-Jul-09 02:01N 35°27' E 139°39'0 0.0
2018-Jul-09 01:31N 35°27' E 139°39'0 0.0
2018-Jul-09 01:00N 35°27' E 139°39'0 0.0
2018-Jul-09 00:31N 35°27' E 139°39'0 0.0
2018-Jul-08 12:41N 35°27' E 139°39'1 3.0
2018-Jul-08 12:31N 35°27' E 139°39'1 1.0
2018-Jul-08 12:01N 35°27' E 139°39'1 1.9
2018-Jul-08 11:31N 35°28' E 139°40'2 4.6
2018-Jul-08 11:01N 35°27' E 139°42'3 6.0
2018-Jul-08 10:30N 35°27' E 139°39'1 1.0
2018-Jul-08 10:01N 35°27' E 139°39'0 0.0
2018-Jul-08 09:31N 35°27' E 139°39'0 0.0
2018-Jul-08 09:01N 35°27' E 139°39'0 0.0
2018-Jul-08 08:31N 35°27' E 139°39'3 5.6
2018-Jul-08 08:01N 35°28' E 139°42'3 5.9
2018-Jul-08 07:31N 35°27' E 139°39'1 1.0
2018-Jul-08 07:01N 35°27' E 139°39'0 0.0
2018-Jul-08 06:31N 35°27' E 139°39'3 5.6
2018-Jul-08 06:00N 35°28' E 139°42'3 5.6
2018-Jul-08 05:31N 35°27' E 139°39'0 0.0
2018-Jul-08 05:01N 35°27' E 139°39'1 1.4
2018-Jul-08 04:31N 35°27' E 139°39'3 5.3
2018-Jul-08 04:00N 35°26' E 139°42'3 5.9
2018-Jul-08 03:30N 35°27' E 139°39'1 1.2
2018-Jul-08 03:00N 35°27' E 139°39'0 0.0
2018-Jul-08 02:31N 35°27' E 139°39'0 0.0
2018-Jul-08 02:01N 35°27' E 139°39'0 0.0
2018-Jul-08 01:31N 35°27' E 139°39'0 0.0
2018-Jul-08 01:01N 35°27' E 139°39'0 0.0
2018-Jul-08 00:30N 35°27' E 139°39'0 0.0
2018-Jul-07 12:37N 35°27' E 139°39'1 4.9
2018-Jul-07 12:31N 35°27' E 139°39'1 1.1
2018-Jul-07 12:00N 35°27' E 139°39'1 2.4
2018-Jul-07 11:30N 35°28' E 139°40'2 4.4
2018-Jul-07 11:00N 35°27' E 139°42'3 6.1
2018-Jul-07 10:30N 35°27' E 139°39'1 1.0
2018-Jul-07 10:00N 35°27' E 139°39'0 0.0
2018-Jul-07 09:30N 35°27' E 139°39'1 1.0
2018-Jul-07 09:00N 35°27' E 139°39'2 3.4
2018-Jul-07 08:30N 35°28' E 139°40'2 3.7
2018-Jul-07 08:00N 35°28' E 139°43'3 6.6
2018-Jul-07 07:30N 35°27' E 139°39'1 1.0
2018-Jul-07 07:00N 35°27' E 139°39'0 0.0
2018-Jul-07 06:30N 35°27' E 139°39'3 5.6
2018-Jul-07 06:00N 35°28' E 139°42'3 5.7
2018-Jul-07 05:30N 35°27' E 139°39'0 0.0
2018-Jul-07 05:00N 35°27' E 139°39'0 0.0
2018-Jul-07 04:30N 35°27' E 139°39'1 1.7
2018-Jul-07 04:01N 35°28' E 139°39'1 2.2
2018-Jul-07 03:30N 35°27' E 139°41'1 2.6
2018-Jul-07 03:00N 35°27' E 139°39'0 0.0
2018-Jul-07 02:30N 35°27' E 139°39'0 0.0
2018-Jul-07 02:00N 35°27' E 139°39'0 0.0
2018-Jul-07 01:30N 35°27' E 139°39'0 0.0
2018-Jul-07 01:00N 35°27' E 139°39'0 0.0
2018-Jul-07 00:30N 35°27' E 139°39'0 0.0
2018-Jul-06 11:55N 35°27' E 139°39'1 3.1
2018-Jul-06 11:31N 35°28' E 139°40'2 3.5
2018-Jul-06 11:00N 35°27' E 139°42'2 5.0
2018-Jul-06 10:30N 35°28' E 139°39'1 1.6
2018-Jul-06 10:00N 35°27' E 139°39'0 0.0
2018-Jul-06 09:30N 35°27' E 139°39'0 0.0
2018-Jul-06 09:00N 35°27' E 139°39'0 0.0
2018-Jul-06 08:30N 35°27' E 139°39'3 5.2
2018-Jul-06 08:01N 35°28' E 139°41'2 4.7
2018-Jul-06 07:31N 35°27' E 139°39'1 1.3
2018-Jul-06 07:00N 35°27' E 139°39'0 0.0
2018-Jul-06 06:30N 35°27' E 139°39'3 5.4
2018-Jul-06 06:00N 35°28' E 139°42'3 5.4
2018-Jul-06 05:30N 35°27' E 139°39'0 0.0
2018-Jul-06 05:00N 35°27' E 139°39'0 0.0
2018-Jul-06 04:30N 35°27' E 139°39'3 5.4
2018-Jul-06 04:00N 35°28' E 139°42'2 4.7
2018-Jul-06 03:30N 35°27' E 139°39'1 1.4
2018-Jul-06 03:00N 35°27' E 139°39'0 0.0
2018-Jul-06 02:30N 35°27' E 139°39'0 0.0
2018-Jul-06 02:00N 35°27' E 139°39'0 0.0
2018-Jul-06 01:30N 35°27' E 139°39'0 0.0
2018-Jul-06 01:00N 35°27' E 139°39'0 0.0
2018-Jul-06 00:30N 35°27' E 139°39'0 0.0
2018-Jul-05 11:56N 35°27' E 139°39'  
Track history (hours):
 
Tides and Currents Weather Stations Pressure Air Temp Water Temp Dewpoint Dewpoint Depression Visibility Wind Speed Wind Dir Waves Ship Positions

Marine Rouge

Last reported at 2018-Jul-15 11:36 UTC. Time now 2018-Jul-16 00:48 UTC.
Position N 35°27' E 139°39'.

Length 52 m; draft 2.8 m.

Type: Passenger vessel. MMSI: 431000518.

Date/timePositionNaut miles runAvg speedWind from/ knotsBaromVisibWave heightAir tempDewpointWater temp
2018-Jul-15 11:36N 35°27' E 139°39'0 3.6
2018-Jul-15 11:31N 35°27' E 139°39'1 1.0
2018-Jul-15 11:00N 35°28' E 139°39'0 0.3
2018-Jul-15 10:31N 35°27' E 139°39'1 1.4
2018-Jul-15 10:00N 35°28' E 139°39'1 2.3
2018-Jul-15 09:31N 35°27' E 139°39'0 0.3
2018-Jul-15 09:00N 35°27' E 139°39'0 0.0
2018-Jul-15 08:30N 35°27' E 139°39'0 0.0
2018-Jul-15 08:00N 35°27' E 139°39'3 5.7
2018-Jul-15 07:30N 35°28' E 139°42'3 5.7
2018-Jul-15 07:00N 35°27' E 139°39'0 0.0
2018-Jul-15 06:30N 35°27' E 139°39'3 5.8
2018-Jul-15 06:00N 35°28' E 139°42'3 5.8
2018-Jul-15 05:30N 35°27' E 139°39'1 1.4
2018-Jul-15 05:00N 35°27' E 139°39'1 1.4
2018-Jul-15 04:30N 35°27' E 139°39'3 5.9
2018-Jul-15 04:00N 35°27' E 139°43'3 6.5
2018-Jul-15 03:30N 35°27' E 139°39'1 1.0
2018-Jul-15 03:00N 35°27' E 139°39'0 0.0
2018-Jul-15 02:30N 35°27' E 139°39'0 0.0
2018-Jul-15 02:00N 35°27' E 139°39'0 0.0
2018-Jul-15 01:30N 35°27' E 139°39'0 0.0
2018-Jul-15 01:00N 35°27' E 139°39'0 0.0
2018-Jul-15 00:29N 35°27' E 139°39'0 0.0
2018-Jul-14 11:34N 35°27' E 139°39'0 1.6
2018-Jul-14 11:30N 35°27' E 139°39'1 1.3
2018-Jul-14 11:00N 35°27' E 139°39'0 0.1
2018-Jul-14 10:30N 35°27' E 139°39'0 0.8
2018-Jul-14 10:00N 35°28' E 139°40'1 1.6
2018-Jul-14 09:31N 35°27' E 139°39'0 0.2
2018-Jul-14 09:00N 35°27' E 139°39'0 0.0
2018-Jul-14 08:30N 35°27' E 139°39'0 0.0
2018-Jul-14 08:01N 35°27' E 139°39'3 5.7
2018-Jul-14 07:31N 35°28' E 139°42'3 5.7
2018-Jul-14 07:01N 35°27' E 139°39'0 0.0
2018-Jul-14 06:30N 35°27' E 139°39'3 5.6
2018-Jul-14 06:00N 35°28' E 139°42'3 5.6
2018-Jul-14 05:30N 35°27' E 139°39'0 0.0
2018-Jul-14 05:00N 35°27' E 139°39'2 4.4
2018-Jul-14 04:30N 35°28' E 139°41'1 2.3
2018-Jul-14 04:00N 35°27' E 139°41'1 2.7
2018-Jul-14 03:30N 35°27' E 139°39'1 1.5
2018-Jul-14 03:00N 35°27' E 139°39'0 0.0
2018-Jul-14 02:30N 35°27' E 139°39'0 0.0
2018-Jul-14 02:01N 35°27' E 139°39'0 0.0
2018-Jul-14 01:30N 35°27' E 139°39'0 0.0
2018-Jul-14 01:00N 35°27' E 139°39'0 0.0
2018-Jul-14 00:30N 35°27' E 139°39'0 0.0
2018-Jul-13 12:39N 35°27' E 139°39'1 5.2
2018-Jul-13 12:30N 35°27' E 139°39'1 1.5
2018-Jul-13 12:00N 35°27' E 139°39'1 2.7
2018-Jul-13 11:30N 35°28' E 139°40'2 4.2
2018-Jul-13 11:00N 35°27' E 139°42'3 5.8
2018-Jul-13 10:30N 35°27' E 139°39'1 1.0
2018-Jul-13 10:00N 35°27' E 139°39'0 0.0
2018-Jul-13 09:30N 35°27' E 139°39'0 0.0
2018-Jul-13 09:00N 35°27' E 139°39'0 0.1
2018-Jul-13 08:30N 35°27' E 139°39'3 5.1
2018-Jul-13 08:00N 35°28' E 139°41'2 4.6
2018-Jul-13 07:30N 35°27' E 139°39'1 1.3
2018-Jul-13 07:01N 35°27' E 139°39'0 0.0
2018-Jul-13 06:31N 35°27' E 139°39'3 5.6
2018-Jul-13 06:00N 35°28' E 139°42'3 5.6
2018-Jul-13 05:30N 35°27' E 139°39'0 0.0
2018-Jul-13 05:00N 35°27' E 139°39'0 0.0
2018-Jul-13 04:30N 35°27' E 139°39'3 5.7
2018-Jul-13 04:00N 35°28' E 139°42'3 6.0
2018-Jul-13 03:30N 35°27' E 139°39'1 1.0
2018-Jul-13 03:00N 35°27' E 139°39'0 0.0
2018-Jul-13 02:30N 35°27' E 139°39'0 0.0
2018-Jul-13 02:00N 35°27' E 139°39'0 0.0
2018-Jul-13 01:30N 35°27' E 139°39'0 0.1
2018-Jul-13 01:00N 35°27' E 139°39'0 0.1
2018-Jul-13 00:30N 35°27' E 139°39'0 0.0
2018-Jul-12 11:56N 35°27' E 139°39'1 3.0
2018-Jul-12 11:30N 35°28' E 139°40'3 5.1
2018-Jul-12 11:00N 35°27' E 139°43'3 6.6
2018-Jul-12 10:31N 35°27' E 139°39'1 1.1
2018-Jul-12 10:00N 35°27' E 139°39'0 0.0
2018-Jul-12 09:30N 35°27' E 139°39'0 0.0
2018-Jul-12 08:59N 35°27' E 139°39'1 2.6
2018-Jul-12 08:30N 35°28' E 139°40'1 2.3
2018-Jul-12 08:00N 35°27' E 139°41'2 3.4
2018-Jul-12 07:30N 35°27' E 139°39'1 1.0
2018-Jul-12 07:00N 35°27' E 139°39'0 0.0
2018-Jul-12 06:30N 35°27' E 139°39'1 2.1
2018-Jul-12 06:00N 35°28' E 139°40'1 2.1
2018-Jul-12 05:30N 35°27' E 139°39'0 0.0
2018-Jul-12 05:00N 35°27' E 139°39'0 0.0
2018-Jul-12 04:30N 35°27' E 139°39'3 5.5
2018-Jul-12 04:00N 35°28' E 139°42'3 5.7
2018-Jul-12 03:30N 35°27' E 139°39'1 1.0
2018-Jul-12 03:00N 35°27' E 139°39'0 0.0
2018-Jul-12 02:30N 35°27' E 139°39'0 0.0
2018-Jul-12 02:00N 35°27' E 139°39'0 0.0
2018-Jul-12 01:30N 35°27' E 139°39'0 0.0
2018-Jul-12 01:00N 35°27' E 139°39'0 0.0
2018-Jul-12 00:30N 35°27' E 139°39'0 0.0
2018-Jul-11 11:57N 35°27' E 139°39'2 3.7
2018-Jul-11 11:31N 35°28' E 139°40'2 4.4
2018-Jul-11 11:01N 35°27' E 139°42'3 6.2
2018-Jul-11 10:31N 35°27' E 139°39'1 1.0
2018-Jul-11 10:01N 35°27' E 139°39'0 0.0
2018-Jul-11 09:31N 35°27' E 139°39'1 1.2
2018-Jul-11 09:01N 35°27' E 139°39'1 2.4
2018-Jul-11 08:31N 35°27' E 139°41'2 3.7
2018-Jul-11 08:00N 35°28' E 139°39'1 1.2
2018-Jul-11 07:30N 35°27' E 139°39'1 1.0
2018-Jul-11 07:00N 35°27' E 139°39'0 0.0
2018-Jul-11 06:31N 35°27' E 139°39'3 5.5
2018-Jul-11 06:00N 35°28' E 139°42'3 5.6
2018-Jul-11 05:31N 35°27' E 139°39'0 0.0
2018-Jul-11 05:00N 35°27' E 139°39'0 0.0
2018-Jul-11 04:31N 35°27' E 139°39'2 4.8
2018-Jul-11 04:01N 35°27' E 139°42'3 5.5
2018-Jul-11 03:31N 35°27' E 139°39'1 1.0
2018-Jul-11 03:01N 35°27' E 139°39'0 0.0
2018-Jul-11 02:30N 35°27' E 139°39'0 0.0
2018-Jul-11 02:00N 35°27' E 139°39'0 0.0
2018-Jul-11 01:31N 35°27' E 139°39'0 0.0
2018-Jul-11 01:00N 35°27' E 139°39'0 0.1
2018-Jul-11 00:31N 35°27' E 139°39'0 0.0
2018-Jul-10 11:58N 35°27' E 139°39'1 2.0
2018-Jul-10 11:30N 35°28' E 139°39'3 5.6
2018-Jul-10 11:00N 35°28' E 139°43'3 5.9
2018-Jul-10 10:31N 35°27' E 139°39'1 1.4
2018-Jul-10 10:00N 35°27' E 139°39'0 0.0
2018-Jul-10 09:30N 35°27' E 139°39'0 0.0
2018-Jul-10 09:00N 35°27' E 139°39'0 0.0
2018-Jul-10 08:30N 35°27' E 139°39'3 5.5
2018-Jul-10 08:00N 35°28' E 139°42'3 5.8
2018-Jul-10 07:30N 35°27' E 139°39'1 1.0
2018-Jul-10 07:00N 35°27' E 139°39'0 0.0
2018-Jul-10 06:31N 35°27' E 139°39'3 5.7
2018-Jul-10 06:00N 35°28' E 139°42'3 5.7
2018-Jul-10 05:30N 35°27' E 139°39'0 0.0
2018-Jul-10 05:00N 35°27' E 139°39'0 0.0
2018-Jul-10 04:30N 35°27' E 139°39'3 5.7
2018-Jul-10 04:00N 35°28' E 139°42'3 6.0
2018-Jul-10 03:30N 35°27' E 139°39'1 1.0
2018-Jul-10 03:00N 35°27' E 139°39'0 0.0
2018-Jul-10 02:30N 35°27' E 139°39'0 0.0
2018-Jul-10 02:00N 35°27' E 139°39'0 0.0
2018-Jul-10 01:30N 35°27' E 139°39'0 0.0
2018-Jul-10 01:00N 35°27' E 139°39'0 0.0
2018-Jul-09 11:57N 35°27' E 139°39'1 2.3
2018-Jul-09 11:31N 35°28' E 139°39'3 6.2
2018-Jul-09 11:01N 35°27' E 139°43'3 6.4
2018-Jul-09 10:31N 35°27' E 139°39'1 1.0
2018-Jul-09 10:01N 35°27' E 139°39'0 0.0
2018-Jul-09 09:31N 35°27' E 139°39'0 0.0
2018-Jul-09 08:59N 35°27' E 139°39'0 0.6
2018-Jul-09 08:31N 35°27' E 139°39'3 5.6
2018-Jul-09 08:01N 35°27' E 139°43'3 6.5
2018-Jul-09 07:31N 35°27' E 139°39'1 1.0
2018-Jul-09 07:01N 35°27' E 139°39'0 0.0
2018-Jul-09 06:30N 35°27' E 139°39'3 5.6
2018-Jul-09 06:01N 35°28' E 139°42'3 5.6
2018-Jul-09 05:31N 35°27' E 139°39'0 0.0
2018-Jul-09 05:00N 35°27' E 139°39'0 0.0
2018-Jul-09 04:31N 35°27' E 139°39'3 5.6
2018-Jul-09 04:01N 35°28' E 139°42'3 5.9
2018-Jul-09 03:30N 35°27' E 139°39'1 1.0
2018-Jul-09 03:01N 35°27' E 139°39'0 0.0
2018-Jul-09 02:30N 35°27' E 139°39'0 0.0
2018-Jul-09 02:01N 35°27' E 139°39'0 0.0
2018-Jul-09 01:31N 35°27' E 139°39'0 0.0
2018-Jul-09 01:00N 35°27' E 139°39'0 0.0
2018-Jul-09 00:31N 35°27' E 139°39'0 0.0
2018-Jul-08 12:41N 35°27' E 139°39'1 3.0
2018-Jul-08 12:31N 35°27' E 139°39'1 1.0
2018-Jul-08 12:01N 35°27' E 139°39'1 1.9
2018-Jul-08 11:31N 35°28' E 139°40'2 4.6
2018-Jul-08 11:01N 35°27' E 139°42'3 6.0
2018-Jul-08 10:30N 35°27' E 139°39'1 1.0
2018-Jul-08 10:01N 35°27' E 139°39'0 0.0
2018-Jul-08 09:31N 35°27' E 139°39'0 0.0
2018-Jul-08 09:01N 35°27' E 139°39'0 0.0
2018-Jul-08 08:31N 35°27' E 139°39'3 5.6
2018-Jul-08 08:01N 35°28' E 139°42'3 5.9
2018-Jul-08 07:31N 35°27' E 139°39'1 1.0
2018-Jul-08 07:01N 35°27' E 139°39'0 0.0
2018-Jul-08 06:31N 35°27' E 139°39'3 5.6
2018-Jul-08 06:00N 35°28' E 139°42'3 5.6
2018-Jul-08 05:31N 35°27' E 139°39'0 0.0
2018-Jul-08 05:01N 35°27' E 139°39'1 1.4
2018-Jul-08 04:31N 35°27' E 139°39'3 5.3
2018-Jul-08 04:00N 35°26' E 139°42'3 5.9
2018-Jul-08 03:30N 35°27' E 139°39'1 1.2
2018-Jul-08 03:00N 35°27' E 139°39'0 0.0
2018-Jul-08 02:31N 35°27' E 139°39'0 0.0
2018-Jul-08 02:01N 35°27' E 139°39'0 0.0
2018-Jul-08 01:31N 35°27' E 139°39'0 0.0
2018-Jul-08 01:01N 35°27' E 139°39'0 0.0
2018-Jul-08 00:30N 35°27' E 139°39'0 0.0
2018-Jul-07 12:37N 35°27' E 139°39'1 4.9
2018-Jul-07 12:31N 35°27' E 139°39'1 1.1
2018-Jul-07 12:00N 35°27' E 139°39'1 2.4
2018-Jul-07 11:30N 35°28' E 139°40'2 4.4
2018-Jul-07 11:00N 35°27' E 139°42'3 6.1
2018-Jul-07 10:30N 35°27' E 139°39'1 1.0
2018-Jul-07 10:00N 35°27' E 139°39'0 0.0
2018-Jul-07 09:30N 35°27' E 139°39'1 1.0
2018-Jul-07 09:00N 35°27' E 139°39'2 3.4
2018-Jul-07 08:30N 35°28' E 139°40'2 3.7
2018-Jul-07 08:00N 35°28' E 139°43'3 6.6
2018-Jul-07 07:30N 35°27' E 139°39'1 1.0
2018-Jul-07 07:00N 35°27' E 139°39'0 0.0
2018-Jul-07 06:30N 35°27' E 139°39'3 5.6
2018-Jul-07 06:00N 35°28' E 139°42'3 5.7
2018-Jul-07 05:30N 35°27' E 139°39'0 0.0
2018-Jul-07 05:00N 35°27' E 139°39'0 0.0
2018-Jul-07 04:30N 35°27' E 139°39'1 1.7
2018-Jul-07 04:01N 35°28' E 139°39'1 2.2
2018-Jul-07 03:30N 35°27' E 139°41'1 2.6
2018-Jul-07 03:00N 35°27' E 139°39'0 0.0
2018-Jul-07 02:30N 35°27' E 139°39'0 0.0
2018-Jul-07 02:00N 35°27' E 139°39'0 0.0
2018-Jul-07 01:30N 35°27' E 139°39'0 0.0
2018-Jul-07 01:00N 35°27' E 139°39'0 0.0
2018-Jul-07 00:30N 35°27' E 139°39'0 0.0
2018-Jul-06 11:55N 35°27' E 139°39'1 3.1
2018-Jul-06 11:31N 35°28' E 139°40'2 3.5
2018-Jul-06 11:00N 35°27' E 139°42'2 5.0
2018-Jul-06 10:30N 35°28' E 139°39'1 1.6
2018-Jul-06 10:00N 35°27' E 139°39'0 0.0
2018-Jul-06 09:30N 35°27' E 139°39'0 0.0
2018-Jul-06 09:00N 35°27' E 139°39'0 0.0
2018-Jul-06 08:30N 35°27' E 139°39'3 5.2
2018-Jul-06 08:01N 35°28' E 139°41'2 4.7
2018-Jul-06 07:31N 35°27' E 139°39'1 1.3
2018-Jul-06 07:00N 35°27' E 139°39'0 0.0
2018-Jul-06 06:30N 35°27' E 139°39'3 5.4
2018-Jul-06 06:00N 35°28' E 139°42'3 5.4
2018-Jul-06 05:30N 35°27' E 139°39'0 0.0
2018-Jul-06 05:00N 35°27' E 139°39'0 0.0
2018-Jul-06 04:30N 35°27' E 139°39'3 5.4
2018-Jul-06 04:00N 35°28' E 139°42'2 4.7
2018-Jul-06 03:30N 35°27' E 139°39'1 1.4
2018-Jul-06 03:00N 35°27' E 139°39'0 0.0
2018-Jul-06 02:30N 35°27' E 139°39'0 0.0
2018-Jul-06 02:00N 35°27' E 139°39'0 0.0
2018-Jul-06 01:30N 35°27' E 139°39'0 0.0
2018-Jul-06 01:00N 35°27' E 139°39'0 0.0
2018-Jul-06 00:30N 35°27' E 139°39'0 0.0
2018-Jul-05 11:56N 35°27' E 139°39'  

Dump ship's entire track history